Time;durP1;ratioP1;P1;durP2;ratioP2;P2;SDS_P1;SDS_P2;PMS_P1;PMS_P2;Temp;Humidity;BMP_temperature;BMP_pressure;BME280_temperature;BME280_humidity;BME280_pressure;Samples;Min_cycle;Max_cycle;Signal;HPM_P1;HPM_P2
2021/10/27 00:01:04;;;;;;;1.73;0.40;;;15.00;81.90;;;;;;5113558;28;20046;-81
2021/10/27 00:03:32;;;;;;;6.28;0.40;;;15.00;82.00;;;;;;5095604;28;20052;-80
2021/10/27 00:05:59;;;;;;;1.73;0.40;;;15.00;82.00;;;;;;5110107;28;20051;-81
2021/10/27 00:08:27;;;;;;;1.30;0.20;;;15.00;82.10;;;;;;5108638;28;20051;-81
2021/10/27 00:10:55;;;;;;;1.33;0.30;;;15.00;82.10;;;;;;5099445;28;20048;-81
2021/10/27 00:13:23;;;;;;;0.95;0.25;;;15.00;82.10;;;;;;5097514;28;20036;-81
2021/10/27 00:15:51;;;;;;;2.75;0.57;;;15.00;81.90;;;;;;5104442;28;20052;-81
2021/10/27 00:18:18;;;;;;;1.10;0.40;;;14.90;81.90;;;;;;5094181;28;20480;-80
2021/10/27 00:20:46;;;;;;;3.28;0.50;;;14.90;81.90;;;;;;5102472;28;20044;-81
2021/10/27 00:23:14;;;;;;;2.05;0.30;;;14.90;81.80;;;;;;5093672;28;20070;-81
2021/10/27 00:25:42;;;;;;;2.38;0.52;;;15.00;81.70;;;;;;5111750;28;20416;-81
2021/10/27 00:28:09;;;;;;;1.48;0.30;;;15.00;81.70;;;;;;5110288;28;20137;-80
2021/10/27 00:30:37;;;;;;;1.20;0.38;;;14.90;81.80;;;;;;5114203;27;20051;-81
2021/10/27 00:33:05;;;;;;;2.25;0.40;;;14.90;81.90;;;;;;5115633;28;20051;-81
2021/10/27 00:35:34;;;;;;;0.82;0.30;;;14.90;81.90;;;;;;5117686;28;20051;-82
2021/10/27 00:38:02;;;;;;;3.25;0.43;;;14.90;81.90;;;;;;5111809;28;20871;-81
2021/10/27 00:40:30;;;;;;;3.72;0.30;;;14.90;81.70;;;;;;5089293;28;20065;-80
2021/10/27 00:42:57;;;;;;;2.35;0.50;;;14.90;81.80;;;;;;5099250;28;20048;-80
2021/10/27 00:45:25;;;;;;;4.78;0.38;;;14.90;81.90;;;;;;5097472;28;20059;-80
2021/10/27 00:47:53;;;;;;;3.72;0.70;;;14.90;82.00;;;;;;5099842;28;20047;-80
2021/10/27 00:50:21;;;;;;;3.97;0.60;;;14.80;82.10;;;;;;5092433;28;20515;-80
2021/10/27 00:53:09;;;;;;;1.42;0.30;;;14.80;82.20;;;;;;5091081;28;20052;-81
2021/10/27 00:55:38;;;;;;;3.65;0.47;;;14.80;82.20;;;;;;5092052;28;20064;-80
2021/10/27 00:58:07;;;;;;;3.13;0.52;;;14.80;82.30;;;;;;5103122;28;20044;-81
2021/10/27 01:00:35;;;;;;;2.30;0.45;;;14.70;82.50;;;;;;5094603;28;20047;-81
2021/10/27 01:03:03;;;;;;;7.55;0.85;;;14.70;82.50;;;;;;5073988;28;20504;-81
2021/10/27 01:05:31;;;;;;;5.90;0.98;;;14.60;82.40;;;;;;5076805;28;20497;-80
2021/10/27 01:07:58;;;;;;;2.83;0.65;;;14.70;82.20;;;;;;5094188;28;20048;-81
2021/10/27 01:10:26;;;;;;;2.05;0.45;;;14.70;82.10;;;;;;5106032;28;20044;-81
2021/10/27 01:12:54;;;;;;;4.40;0.55;;;14.70;81.90;;;;;;5094692;28;20055;-80
2021/10/27 01:15:21;;;;;;;4.13;0.57;;;14.70;81.70;;;;;;5098005;28;20051;-80
2021/10/27 01:17:49;;;;;;;3.47;0.70;;;14.70;81.50;;;;;;5110304;28;20086;-81
2021/10/27 01:20:17;;;;;;;5.38;0.80;;;14.80;81.20;;;;;;5110995;28;20515;-81
2021/10/27 01:22:44;;;;;;;3.40;0.75;;;14.80;81.30;;;;;;5111769;28;20059;-81
2021/10/27 01:25:12;;;;;;;3.78;0.90;;;14.80;81.20;;;;;;5105988;28;20063;-80
2021/10/27 01:27:47;;;;;;;5.13;0.70;;;14.80;81.20;;;;;;5111069;28;20055;-81
2021/10/27 01:30:19;;;;;;;3.55;0.57;;;14.80;81.40;;;;;;5109168;28;20052;-80
2021/10/27 01:32:49;;;;;;;6.70;0.77;;;14.90;81.40;;;;;;5111114;28;20048;-80
2021/10/27 01:35:17;;;;;;;5.15;1.10;;;14.80;81.60;;;;;;5112116;28;20048;-81
2021/10/27 01:37:46;;;;;;;5.85;0.55;;;14.80;81.70;;;;;;5110814;28;20054;-80
2021/10/27 01:40:18;;;;;;;5.38;0.90;;;14.80;81.70;;;;;;5108982;28;20044;-80
2021/10/27 01:42:47;;;;;;;8.07;1.13;;;14.80;81.80;;;;;;5112635;28;20400;-80
2021/10/27 01:45:14;;;;;;;4.90;0.95;;;14.80;81.90;;;;;;5111188;28;20056;-81
2021/10/27 01:47:44;;;;;;;6.97;1.00;;;14.80;82.00;;;;;;5092374;28;20051;-80
2021/10/27 01:50:13;;;;;;;6.75;1.02;;;14.80;82.10;;;;;;5084083;28;20413;-81
2021/10/27 01:52:40;;;;;;;6.78;0.85;;;14.70;82.30;;;;;;5087260;28;20050;-81
2021/10/27 01:55:08;;;;;;;8.68;1.20;;;14.70;82.40;;;;;;5089508;28;20044;-81
2021/10/27 01:57:36;;;;;;;6.30;0.90;;;14.70;82.50;;;;;;5107187;28;20042;-80
2021/10/27 02:00:06;;;;;;;5.00;0.88;;;14.60;82.70;;;;;;5111566;28;20047;-80
2021/10/27 02:02:38;;;;;;;4.65;0.77;;;14.50;82.80;;;;;;5110429;28;20050;-81
2021/10/27 02:05:07;;;;;;;4.72;0.82;;;14.50;82.90;;;;;;5104738;28;20515;-81
2021/10/27 02:07:35;;;;;;;4.63;1.17;;;14.50;82.70;;;;;;5090273;28;20535;-81
2021/10/27 02:10:08;;;;;;;4.95;0.90;;;14.60;82.40;;;;;;5073388;28;20044;-81
2021/10/27 02:12:37;;;;;;;2.95;0.90;;;14.60;81.90;;;;;;5091762;28;20754;-81
2021/10/27 02:15:06;;;;;;;3.22;0.35;;;14.60;81.90;;;;;;5093544;28;20068;-80
2021/10/27 02:17:36;;;;;;;4.88;0.70;;;14.60;81.70;;;;;;5099346;28;20516;-81
2021/10/27 02:20:06;;;;;;;4.00;0.82;;;14.70;81.30;;;;;;5095468;28;20404;-81
2021/10/27 02:22:34;;;;;;;2.60;0.50;;;14.70;81.10;;;;;;5073719;28;20051;-81
2021/10/27 02:25:03;;;;;;;4.22;0.50;;;14.70;81.00;;;;;;5081775;28;20040;-81
2021/10/27 02:27:31;;;;;;;2.58;0.73;;;14.70;81.10;;;;;;5087520;28;20044;-81
2021/10/27 02:30:00;;;;;;;2.50;0.57;;;14.80;81.10;;;;;;5082994;28;20041;-81
2021/10/27 02:32:27;;;;;;;4.18;0.90;;;14.80;81.20;;;;;;5081302;28;20503;-81
2021/10/27 02:34:55;;;;;;;3.72;0.93;;;14.80;81.20;;;;;;5087348;28;20044;-80
2021/10/27 02:37:23;;;;;;;2.05;0.57;;;14.80;81.30;;;;;;5088440;28;20048;-81
2021/10/27 02:39:51;;;;;;;5.00;0.90;;;14.90;81.20;;;;;;5085192;28;20059;-81
2021/10/27 02:42:18;;;;;;;6.55;0.80;;;14.90;81.20;;;;;;5085831;28;20052;-81
2021/10/27 02:44:46;;;;;;;4.72;0.65;;;14.80;81.20;;;;;;5083690;28;20508;-81
2021/10/27 02:47:14;;;;;;;2.38;0.40;;;14.90;81.10;;;;;;5067760;28;20044;-82
2021/10/27 02:49:42;;;;;;;4.82;0.80;;;14.90;81.10;;;;;;5080714;28;20083;-81
2021/10/27 02:52:12;;;;;;;6.35;0.73;;;14.90;81.10;;;;;;5067948;28;20047;-81
2021/10/27 02:54:40;;;;;;;4.53;0.85;;;14.90;81.20;;;;;;5082865;28;20045;-81
2021/10/27 02:57:10;;;;;;;3.50;0.70;;;14.90;81.30;;;;;;5085785;28;20043;-81
2021/10/27 02:59:38;;;;;;;3.05;0.60;;;14.90;81.40;;;;;;5081550;28;20052;-81
2021/10/27 03:02:06;;;;;;;3.97;0.90;;;14.90;81.50;;;;;;5089321;28;20048;-81
2021/10/27 03:04:34;;;;;;;4.95;0.82;;;14.90;81.60;;;;;;5092704;28;20049;-81
2021/10/27 03:07:02;;;;;;;2.28;0.50;;;14.90;81.70;;;;;;5094510;28;20035;-81
2021/10/27 03:09:29;;;;;;;4.30;0.60;;;14.90;82.00;;;;;;5085095;28;20056;-81
2021/10/27 03:11:57;;;;;;;2.40;0.50;;;14.90;82.40;;;;;;5073421;28;20052;-80
2021/10/27 03:14:25;;;;;;;1.85;0.40;;;14.90;82.90;;;;;;5081092;28;20036;-82
2021/10/27 03:16:54;;;;;;;5.65;1.08;;;14.80;83.30;;;;;;5073818;28;20560;-81
2021/10/27 03:19:23;;;;;;;6.63;1.17;;;14.80;83.50;;;;;;5085365;28;20036;-81
2021/10/27 03:21:53;;;;;;;7.30;1.13;;;14.70;83.70;;;;;;5109514;28;20035;-81
2021/10/27 03:24:20;;;;;;;6.50;0.80;;;14.60;83.80;;;;;;5105919;28;20047;-81
2021/10/27 03:26:49;;;;;;;3.40;0.80;;;14.60;83.90;;;;;;5092848;28;20059;-81
2021/10/27 03:29:17;;;;;;;6.85;0.90;;;14.60;83.90;;;;;;5080973;28;20442;-81
2021/10/27 03:31:46;;;;;;;4.72;1.08;;;14.50;84.00;;;;;;5072677;28;20465;-81
2021/10/27 03:34:14;;;;;;;6.30;0.70;;;14.50;84.00;;;;;;5073219;28;20045;-81
2021/10/27 03:36:42;;;;;;;4.05;0.70;;;14.50;84.00;;;;;;5074249;28;20049;-81
2021/10/27 03:39:11;;;;;;;4.88;0.60;;;14.50;83.90;;;;;;5072507;28;20060;-81
2021/10/27 03:41:39;;;;;;;3.17;0.57;;;14.60;83.60;;;;;;5072691;28;20052;-80
2021/10/27 03:44:07;;;;;;;3.05;0.70;;;14.60;83.10;;;;;;5074046;28;20059;-81
2021/10/27 03:46:35;;;;;;;3.47;0.75;;;14.60;82.90;;;;;;5073237;28;20190;-81
2021/10/27 03:49:03;;;;;;;6.13;0.95;;;14.70;82.70;;;;;;5072989;28;20048;-81
2021/10/27 03:51:31;;;;;;;1.38;0.50;;;14.70;82.60;;;;;;5056359;28;20056;-81
2021/10/27 03:53:58;;;;;;;1.30;0.50;;;14.70;82.60;;;;;;5056772;28;20041;-81
2021/10/27 03:56:26;;;;;;;2.28;0.68;;;14.80;82.50;;;;;;5076182;28;20052;-81
2021/10/27 03:58:54;;;;;;;3.15;0.70;;;14.80;82.20;;;;;;5073461;28;20055;-81
2021/10/27 04:01:21;;;;;;;3.40;0.60;;;14.80;82.20;;;;;;5082901;28;20057;-81
2021/10/27 04:03:49;;;;;;;4.88;0.52;;;14.90;82.10;;;;;;5072133;28;20497;-81
2021/10/27 04:06:19;;;;;;;2.08;0.50;;;14.90;82.10;;;;;;5071259;28;20056;-81
2021/10/27 04:08:46;;;;;;;3.63;0.50;;;14.90;82.10;;;;;;5072339;28;20036;-81
2021/10/27 04:11:14;;;;;;;2.30;0.68;;;14.90;82.10;;;;;;5072270;28;20516;-80
2021/10/27 04:13:42;;;;;;;5.75;0.73;;;14.90;82.10;;;;;;5072490;28;20055;-81
2021/10/27 04:16:10;;;;;;;5.20;1.05;;;14.90;81.90;;;;;;5073775;28;20048;-81
2021/10/27 04:18:38;;;;;;;4.32;0.60;;;14.90;81.90;;;;;;5072530;28;20453;-81
2021/10/27 04:21:06;;;;;;;2.13;0.70;;;14.90;81.70;;;;;;5079558;28;20410;-81
2021/10/27 04:23:39;;;;;;;3.78;0.68;;;14.90;81.60;;;;;;5072328;28;20036;-80
2021/10/27 04:26:07;;;;;;;4.85;0.70;;;14.90;81.60;;;;;;5078367;28;20061;-81
2021/10/27 04:28:35;;;;;;;4.85;0.70;;;14.90;81.50;;;;;;5072106;28;20049;-81
2021/10/27 04:31:02;;;;;;;4.32;0.55;;;14.90;81.50;;;;;;5073205;28;20488;-81
2021/10/27 04:33:30;;;;;;;2.67;0.40;;;14.90;81.30;;;;;;5081490;28;20051;-80
2021/10/27 04:35:58;;;;;;;4.68;0.60;;;15.00;81.10;;;;;;5079730;28;20517;-81
2021/10/27 04:38:26;;;;;;;4.05;0.50;;;15.00;80.60;;;;;;5080394;28;20416;-81
2021/10/27 04:40:55;;;;;;;2.90;0.50;;;15.10;80.50;;;;;;5081997;28;20040;-81
2021/10/27 04:43:22;;;;;;;4.28;0.70;;;15.10;80.70;;;;;;5078878;28;20045;-81
2021/10/27 04:45:50;;;;;;;4.45;0.70;;;15.10;80.60;;;;;;5081942;28;20051;-81
2021/10/27 04:48:18;;;;;;;2.83;0.80;;;15.00;80.50;;;;;;5080195;28;20394;-81
2021/10/27 04:50:46;;;;;;;1.25;0.60;;;15.10;80.70;;;;;;5083143;28;20637;-81
2021/10/27 04:53:16;;;;;;;0.95;0.50;;;15.00;80.70;;;;;;5081519;28;20043;-81
2021/10/27 04:55:46;;;;;;;2.00;0.63;;;15.00;80.80;;;;;;5082606;28;20049;-81
2021/10/27 04:58:16;;;;;;;4.25;0.70;;;15.00;80.60;;;;;;5079559;28;20501;-81
2021/10/27 05:00:44;;;;;;;2.13;0.40;;;15.10;80.60;;;;;;5082462;28;20060;-82
2021/10/27 05:03:12;;;;;;;2.40;0.60;;;15.00;80.60;;;;;;5079485;28;20036;-80
2021/10/27 05:05:53;;;;;;;2.75;0.60;;;15.00;80.50;;;;;;5062962;28;20049;-81
2021/10/27 05:08:24;;;;;;;2.20;0.80;;;15.00;80.70;;;;;;5081088;28;20044;-82
2021/10/27 05:10:53;;;;;;;3.00;0.70;;;15.00;80.70;;;;;;5081186;28;20052;-81
2021/10/27 05:13:20;;;;;;;3.40;0.70;;;15.10;80.70;;;;;;5082117;28;20063;-82
2021/10/27 05:15:48;;;;;;;1.45;0.40;;;15.00;80.60;;;;;;5079475;28;20048;-82
2021/10/27 05:18:17;;;;;;;4.45;0.68;;;15.10;80.70;;;;;;5062778;28;20036;-82
2021/10/27 05:20:46;;;;;;;1.90;0.50;;;15.10;80.60;;;;;;5062676;28;20048;-82
2021/10/27 05:23:14;;;;;;;5.68;0.60;;;15.10;80.60;;;;;;5079943;28;20040;-82
2021/10/27 05:25:42;;;;;;;6.32;0.65;;;15.00;80.80;;;;;;5082534;28;20522;-82
2021/10/27 05:28:11;;;;;;;2.05;0.50;;;15.00;80.90;;;;;;5064133;28;20044;-82
2021/10/27 05:30:38;;;;;;;4.68;1.00;;;15.00;81.10;;;;;;5055974;28;20044;-82
2021/10/27 05:33:06;;;;;;;2.38;0.63;;;15.00;81.30;;;;;;5063275;28;20399;-83
2021/10/27 05:35:37;;;;;;;2.75;0.50;;;15.00;81.50;;;;;;5075330;28;20488;-82
2021/10/27 05:38:07;;;;;;;3.37;0.50;;;14.90;81.80;;;;;;5069241;28;20036;-81
2021/10/27 05:40:35;;;;;;;2.35;0.38;;;14.90;82.20;;;;;;5078268;28;20396;-82
2021/10/27 05:43:10;;;;;;;0.80;0.20;;;14.80;82.40;;;;;;5080232;28;20489;-81
2021/10/27 05:45:38;;;;;;;4.32;0.55;;;14.90;82.90;;;;;;5078584;28;20053;-81
2021/10/27 05:48:08;;;;;;;3.25;0.40;;;14.90;83.00;;;;;;5080692;28;20040;-80
2021/10/27 05:50:43;;;;;;;2.22;0.30;;;14.90;83.30;;;;;;5080658;28;20040;-81
2021/10/27 05:55:58;;;;;;;1.13;0.30;;;14.90;83.80;;;;;;5091537;28;20397;-81
2021/10/27 05:58:26;;;;;;;2.03;0.40;;;14.80;84.30;;;;;;5091815;28;20048;-80
2021/10/27 06:00:53;;;;;;;0.43;0.30;;;14.80;84.30;;;;;;5090979;28;20500;-81
2021/10/27 06:03:22;;;;;;;3.35;0.45;;;14.80;84.60;;;;;;5091162;28;20040;-80
2021/10/27 06:05:50;;;;;;;3.45;0.40;;;14.80;84.80;;;;;;5091740;28;20401;-80
2021/10/27 06:08:18;;;;;;;2.25;0.55;;;14.70;84.90;;;;;;5091145;28;20489;-80
2021/10/27 06:10:46;;;;;;;2.50;0.63;;;14.70;85.10;;;;;;5074111;28;20056;-80
2021/10/27 06:13:15;;;;;;;2.53;0.57;;;14.70;85.20;;;;;;5093727;28;20048;-80
2021/10/27 06:15:44;;;;;;;4.03;0.40;;;14.60;85.30;;;;;;5075367;28;20040;-81
2021/10/27 06:18:12;;;;;;;3.25;0.60;;;14.60;85.30;;;;;;5092295;28;20505;-81
2021/10/27 06:20:40;;;;;;;5.70;0.98;;;14.50;85.40;;;;;;5091121;28;20055;-81
2021/10/27 06:23:08;;;;;;;3.65;0.55;;;14.50;85.50;;;;;;5094709;28;20048;-81
2021/10/27 06:25:35;;;;;;;2.15;0.50;;;14.50;85.60;;;;;;5077279;28;20309;-81
2021/10/27 06:28:09;;;;;;;3.67;0.80;;;14.50;85.80;;;;;;5094352;28;20411;-81
2021/10/27 06:30:51;;;;;;;;;;;14.50;85.80;;;;;;5092304;28;20101;-81
2021/10/27 06:36:09;;;;;;;;;;;14.60;85.80;;;;;;5087308;28;20052;-81
2021/10/27 06:48:50;;;;;;;4.50;0.85;;;14.70;85.60;;;;;;5071637;28;20490;-81
2021/10/27 06:51:18;;;;;;;2.85;0.50;;;14.70;85.50;;;;;;5070380;28;20048;-81
2021/10/27 06:53:48;;;;;;;2.92;0.38;;;14.80;85.50;;;;;;5070341;28;20075;-81
2021/10/27 06:56:19;;;;;;;1.77;0.50;;;14.80;85.40;;;;;;5070082;28;20041;-81
2021/10/27 07:17:51;;;;;;;2.25;0.50;;;14.80;84.80;;;;;;5058280;28;20049;-81
2021/10/27 07:20:20;;;;;;;1.58;0.50;;;14.80;84.70;;;;;;5035525;28;20053;-80
2021/10/27 07:22:48;;;;;;;2.00;0.50;;;14.80;84.70;;;;;;5055590;28;20061;-81
2021/10/27 07:25:16;;;;;;;6.63;0.70;;;14.80;84.80;;;;;;5038299;28;20057;-81
2021/10/27 07:27:45;;;;;;;4.65;0.63;;;14.80;84.80;;;;;;5051826;28;20398;-81
2021/10/27 07:30:13;;;;;;;2.42;0.70;;;14.80;84.80;;;;;;5035263;28;20055;-81
2021/10/27 07:32:41;;;;;;;1.33;0.30;;;14.90;84.80;;;;;;5018780;28;20056;-81
2021/10/27 07:40:41;;;;;;;2.63;0.50;;;14.90;85.30;;;;;;5051581;28;20505;-81
2021/10/27 07:43:15;;;;;;;3.25;0.43;;;14.90;85.60;;;;;;5051857;28;20653;-81
2021/10/27 07:45:44;;;;;;;1.27;0.28;;;14.90;85.90;;;;;;5051971;28;20057;-81
2021/10/27 07:48:13;;;;;;;5.63;0.75;;;14.80;86.10;;;;;;5055195;28;20049;-81
2021/10/27 07:50:41;;;;;;;2.53;0.30;;;14.80;86.40;;;;;;5056018;28;20466;-81
2021/10/27 07:53:12;;;;;;;1.40;0.30;;;14.80;86.40;;;;;;5072639;28;20048;-81
2021/10/27 07:55:43;;;;;;;2.00;0.30;;;14.80;86.30;;;;;;5072170;28;20037;-81
2021/10/27 07:58:13;;;;;;;1.13;0.10;;;14.90;86.20;;;;;;5079992;28;20063;-81
2021/10/27 08:00:42;;;;;;;1.33;0.20;;;14.90;86.10;;;;;;5092805;28;20481;-81
2021/10/27 08:03:11;;;;;;;3.35;0.40;;;14.90;86.00;;;;;;5093539;28;20435;-81
2021/10/27 08:05:41;;;;;;;1.65;0.28;;;15.00;85.70;;;;;;5093547;28;20131;-81
2021/10/27 08:08:14;;;;;;;1.70;0.40;;;15.00;85.50;;;;;;5093910;28;20044;-81
2021/10/27 08:10:42;;;;;;;0.77;0.30;;;15.10;85.10;;;;;;5093780;28;20217;-81
2021/10/27 08:13:10;;;;;;;3.30;0.30;;;15.20;84.80;;;;;;5103966;28;20066;-81
2021/10/27 08:15:42;;;;;;;1.58;0.30;;;15.30;84.20;;;;;;5081553;28;20489;-81
2021/10/27 08:18:14;;;;;;;2.30;0.50;;;15.30;84.00;;;;;;5055833;28;20414;-81
2021/10/27 08:20:46;;;;;;;1.13;0.30;;;15.50;83.40;;;;;;5073626;28;20393;-82
2021/10/27 08:23:17;;;;;;;2.05;0.40;;;15.50;83.00;;;;;;5071916;28;20492;-82
2021/10/27 08:25:52;;;;;;;2.55;0.43;;;15.60;82.90;;;;;;5073262;28;20056;-82
2021/10/27 08:28:28;;;;;;;1.63;0.40;;;15.60;82.60;;;;;;5073112;28;20402;-80
2021/10/27 08:35:58;;;;;;;;;;;15.70;82.40;;;;;;5073538;28;20040;-80
2021/10/27 08:38:26;;;;;;;2.85;0.60;;;15.80;82.30;;;;;;5071614;28;19920;-80
2021/10/27 08:40:55;;;;;;;3.13;0.50;;;15.80;82.20;;;;;;5071162;28;20068;-80
2021/10/27 08:43:24;;;;;;;1.83;0.47;;;15.70;82.30;;;;;;5071839;28;20059;-79
2021/10/27 08:45:53;;;;;;;1.42;0.35;;;15.80;82.40;;;;;;5072997;28;20509;-80
2021/10/27 08:48:22;;;;;;;1.02;0.40;;;15.80;82.10;;;;;;5071885;28;20051;-80
2021/10/27 08:50:50;;;;;;;0.88;0.35;;;15.80;82.00;;;;;;5038493;28;20041;-80
2021/10/27 08:53:21;;;;;;;2.58;0.70;;;15.80;81.80;;;;;;5072417;28;20049;-82
2021/10/27 08:55:50;;;;;;;1.63;0.30;;;15.80;81.70;;;;;;5073283;28;20044;-81
2021/10/27 08:58:29;;;;;;;0.55;0.30;;;15.90;81.80;;;;;;5074621;28;20074;-80
2021/10/27 09:04:04;;;;;;;4.68;0.73;;;16.00;81.60;;;;;;5071665;28;20056;-81
2021/10/27 09:34:43;;;;;;;2.25;0.40;;;16.30;80.30;;;;;;5074608;28;20052;-81
2021/10/27 09:37:58;;;;;;;1.30;0.30;;;16.30;79.50;;;;;;5091273;28;20047;-82
2021/10/27 09:40:56;;;;;;;1.20;0.40;;;16.40;78.90;;;;;;5088398;28;20493;-82
2021/10/27 10:05:30;;;;;;;5.50;0.93;;;16.60;77.80;;;;;;5080563;28;20389;-82
2021/10/27 10:07:58;;;;;;;0.82;0.40;;;16.70;77.50;;;;;;5080368;28;20053;-82
2021/10/27 10:10:26;;;;;;;3.33;0.70;;;16.70;77.30;;;;;;5080681;28;20051;-82
2021/10/27 10:12:54;;;;;;;3.72;0.65;;;16.80;77.50;;;;;;5081739;28;20048;-80
2021/10/27 10:15:37;;;;;;;4.95;0.50;;;16.80;77.60;;;;;;5077222;28;20072;-81
2021/10/27 10:18:06;;;;;;;3.40;0.47;;;16.80;76.90;;;;;;5075054;28;20048;-81
2021/10/27 10:20:36;;;;;;;2.90;0.60;;;16.80;76.70;;;;;;5098468;28;20054;-82
2021/10/27 10:23:23;;;;;;;5.00;0.70;;;16.80;76.50;;;;;;5078267;28;20036;-81
2021/10/27 10:25:52;;;;;;;4.80;0.90;;;16.80;76.60;;;;;;5086257;28;20043;-81
2021/10/27 10:28:26;;;;;;;3.33;0.98;;;16.80;76.70;;;;;;5083814;28;20056;-81
2021/10/27 10:31:02;;;;;;;2.08;0.68;;;16.80;76.80;;;;;;5070649;28;20041;-81
2021/10/27 10:33:38;;;;;;;3.15;0.70;;;16.80;76.70;;;;;;5071393;28;20049;-82
2021/10/27 10:36:26;;;;;;;3.10;0.73;;;16.80;76.70;;;;;;5072740;28;20059;-81
2021/10/27 11:01:48;;;;;;;2.45;0.40;;;17.00;76.00;;;;;;5061759;28;20060;-82
2021/10/27 11:40:14;;;;;;;3.10;0.75;;;17.10;75.60;;;;;;5084049;28;20436;-80
2021/10/27 11:48:07;;;;;;;1.40;0.40;;;17.20;74.80;;;;;;5080832;28;20035;-81
2021/10/27 11:50:40;;;;;;;3.28;0.60;;;17.20;75.50;;;;;;5086616;28;20488;-81
2021/10/27 11:53:26;;;;;;;3.53;0.70;;;17.20;75.20;;;;;;5086689;28;20036;-82
2021/10/27 11:56:08;;;;;;;3.05;0.52;;;17.20;75.10;;;;;;5083888;28;20399;-80
2021/10/27 11:58:38;;;;;;;4.50;0.70;;;17.20;74.50;;;;;;5085045;28;20482;-80
2021/10/27 12:01:07;;;;;;;3.00;0.65;;;17.10;74.90;;;;;;5081768;28;20203;-81
2021/10/27 12:03:38;;;;;;;2.60;0.57;;;17.10;75.20;;;;;;5080485;28;20529;-81
2021/10/27 12:06:14;;;;;;;4.40;0.73;;;17.10;75.30;;;;;;5069153;28;20052;-83
2021/10/27 12:19:22;;;;;;;2.60;0.73;;;17.10;74.80;;;;;;5089116;28;20051;-83
2021/10/27 12:22:03;;;;;;;2.05;0.68;;;17.30;73.80;;;;;;5069509;28;20049;-83
2021/10/27 12:24:36;;;;;;;3.13;0.50;;;17.30;74.10;;;;;;5088622;28;20512;-80
2021/10/27 12:27:20;;;;;;;3.45;0.63;;;17.30;73.90;;;;;;5084464;28;20040;-78
2021/10/27 12:29:53;;;;;;;4.35;0.90;;;17.40;73.70;;;;;;5082214;28;20040;-82
2021/10/27 12:32:23;;;;;;;4.45;1.20;;;17.40;73.30;;;;;;5079892;28;20036;-80
2021/10/27 12:34:59;;;;;;;2.65;0.60;;;17.50;73.40;;;;;;5056035;28;20045;-80
2021/10/27 12:40:28;;;;;;;2.80;0.88;;;17.70;72.70;;;;;;5081462;28;20048;-80
2021/10/27 12:43:03;;;;;;;4.93;0.82;;;17.70;72.40;;;;;;5070947;28;20044;-80
2021/10/27 12:45:55;;;;;;;6.70;0.80;;;17.60;73.10;;;;;;5067360;28;20052;-81
2021/10/27 12:48:36;;;;;;;4.65;1.08;;;17.50;73.20;;;;;;5084570;28;20044;-80
2021/10/27 12:51:09;;;;;;;7.72;1.10;;;17.50;72.70;;;;;;5081036;28;20039;-82
2021/10/27 12:53:40;;;;;;;6.93;0.90;;;17.50;72.70;;;;;;5081117;28;20044;-81
2021/10/27 12:56:17;;;;;;;5.57;1.05;;;17.50;72.40;;;;;;5082324;28;20382;-81
2021/10/27 12:58:53;;;;;;;1.80;0.63;;;17.50;73.00;;;;;;5081757;28;20036;-81
2021/10/27 13:01:43;;;;;;;3.20;0.98;;;17.50;72.60;;;;;;5082641;28;20481;-81
2021/10/27 13:09:21;;;;;;;2.75;0.70;;;17.50;71.30;;;;;;5078913;28;20059;-82
2021/10/27 13:20:32;;;;;;;2.92;1.10;;;17.50;71.60;;;;;;5082470;28;20382;-81
2021/10/27 13:23:06;;;;;;;7.65;1.30;;;17.40;72.00;;;;;;5084808;28;20052;-81
2021/10/27 13:31:08;;;;;;;5.40;1.20;;;17.40;71.80;;;;;;5075716;28;20047;-81
2021/10/27 13:33:36;;;;;;;6.03;1.05;;;17.40;71.40;;;;;;5082119;28;20055;-83
2021/10/27 13:36:04;;;;;;;5.22;1.00;;;17.40;71.00;;;;;;5081950;28;20048;-81
2021/10/27 13:38:35;;;;;;;4.95;0.93;;;17.30;71.10;;;;;;5082904;28;20048;-81
2021/10/27 13:41:06;;;;;;;2.35;0.70;;;17.30;71.00;;;;;;5080993;28;20044;-81
2021/10/27 13:43:44;;;;;;;7.22;0.90;;;17.30;71.00;;;;;;5080212;28;20051;-81
2021/10/27 13:49:40;;;;;;;3.97;0.95;;;17.30;71.00;;;;;;5056147;28;20044;-81
2021/10/27 13:58:02;;;;;;;3.88;1.40;;;17.30;71.50;;;;;;5071280;28;20401;-80
2021/10/27 14:11:57;;;;;;;7.53;1.42;;;17.00;71.40;;;;;;5074742;28;20054;-77
2021/10/27 14:14:41;;;;;;;5.00;1.08;;;17.00;71.70;;;;;;5083335;28;20118;-71
2021/10/27 14:20:23;;;;;;;5.53;1.08;;;16.90;71.50;;;;;;5086719;28;20055;-72
2021/10/27 14:39:46;;;;;;;5.75;1.00;;;16.80;71.80;;;;;;5082005;28;20059;-73
2021/10/27 15:20:52;;;;;;;2.88;1.45;;;16.50;72.60;;;;;;5088283;28;20055;-86
2021/10/27 15:23:45;;;;;;;5.93;1.40;;;16.50;72.70;;;;;;5097572;28;20208;-92
2021/10/27 15:34:55;;;;;;;6.63;1.38;;;16.50;72.90;;;;;;5098930;28;20540;-92
2021/10/27 15:50:57;;;;;;;4.65;1.20;;;16.40;73.20;;;;;;5087768;28;20044;-92
2021/10/27 15:53:38;;;;;;;5.13;1.03;;;16.40;73.40;;;;;;5083736;28;20041;-82
2021/10/27 15:56:19;;;;;;;6.50;1.38;;;16.40;73.40;;;;;;5046771;28;20296;-84
2021/10/27 15:59:16;;;;;;;4.68;1.55;;;16.40;73.10;;;;;;5081134;28;20052;-88
2021/10/27 16:01:45;;;;;;;6.10;1.27;;;16.50;72.90;;;;;;5082908;28;20508;-83
2021/10/27 16:04:13;;;;;;;4.55;1.17;;;16.50;72.90;;;;;;5084111;28;20055;-87
2021/10/27 16:06:44;;;;;;;4.30;1.30;;;16.50;72.90;;;;;;5084489;28;20067;-85
2021/10/27 16:09:12;;;;;;;3.88;1.60;;;16.50;72.80;;;;;;5080651;28;20623;-87
2021/10/27 16:11:40;;;;;;;3.78;1.10;;;16.50;72.90;;;;;;5089602;28;20103;-90
2021/10/27 16:14:08;;;;;;;5.75;1.08;;;16.40;72.90;;;;;;5081284;28;20049;-89
2021/10/27 16:16:36;;;;;;;3.95;1.65;;;16.40;73.10;;;;;;5079997;28;20056;-89
2021/10/27 16:19:23;;;;;;;6.95;1.55;;;16.30;73.30;;;;;;5083892;28;20032;-87
2021/10/27 16:22:10;;;;;;;5.25;1.30;;;16.30;73.60;;;;;;5076191;28;20513;-89
2021/10/27 16:24:40;;;;;;;3.92;1.10;;;16.30;73.70;;;;;;5082760;28;20059;-89
2021/10/27 16:27:08;;;;;;;6.22;1.20;;;16.20;74.20;;;;;;5082048;28;20047;-82
2021/10/27 16:29:36;;;;;;;8.25;1.17;;;16.20;74.70;;;;;;5083644;28;20066;-88
2021/10/27 16:32:09;;;;;;;6.57;1.52;;;16.10;75.30;;;;;;5087901;28;20063;-86
2021/10/27 16:34:38;;;;;;;2.53;0.82;;;16.00;75.60;;;;;;5093498;28;20047;-86
2021/10/27 16:37:24;;;;;;;7.07;1.55;;;16.00;75.80;;;;;;5085587;28;20049;-86
2021/10/27 16:39:54;;;;;;;6.35;1.25;;;15.90;76.10;;;;;;5092184;28;20052;-85
2021/10/27 16:42:24;;;;;;;4.55;1.42;;;15.90;76.40;;;;;;5086049;28;20064;-88
2021/10/27 16:44:52;;;;;;;5.65;1.10;;;15.80;76.40;;;;;;5087375;28;20051;-85
2021/10/27 16:47:20;;;;;;;3.53;0.90;;;15.80;76.70;;;;;;5090257;28;20400;-86
2021/10/27 16:49:48;;;;;;;4.25;0.90;;;15.80;76.80;;;;;;5084129;28;20466;-85
2021/10/27 16:52:17;;;;;;;6.25;1.33;;;15.80;76.90;;;;;;5083236;28;20052;-87
2021/10/27 16:54:45;;;;;;;2.58;1.17;;;15.80;76.90;;;;;;5077060;28;20035;-86
2021/10/27 16:57:12;;;;;;;4.47;1.00;;;15.80;77.00;;;;;;5063332;28;20043;-87
2021/10/27 16:59:41;;;;;;;3.70;0.93;;;15.80;77.20;;;;;;5093892;28;20378;-87
2021/10/27 17:02:09;;;;;;;4.32;1.25;;;15.70;77.30;;;;;;5092188;28;20443;-87
2021/10/27 17:04:38;;;;;;;3.88;0.93;;;15.70;77.40;;;;;;5084829;28;20036;-87
2021/10/27 17:07:06;;;;;;;8.25;1.42;;;15.70;77.50;;;;;;5079582;28;20086;-86
2021/10/27 17:09:37;;;;;;;3.88;1.10;;;15.70;77.60;;;;;;5082530;28;20043;-85
2021/10/27 17:12:07;;;;;;;5.18;1.13;;;15.70;77.70;;;;;;5088786;28;20036;-86
2021/10/27 17:14:35;;;;;;;5.72;1.02;;;15.60;77.80;;;;;;5072249;28;20498;-86
2021/10/27 17:17:05;;;;;;;6.05;1.20;;;15.60;77.70;;;;;;5089067;28;20390;-86
2021/10/27 17:19:33;;;;;;;6.45;1.40;;;15.60;77.70;;;;;;5080886;28;20063;-87
2021/10/27 17:22:02;;;;;;;3.90;1.08;;;15.60;77.80;;;;;;5082149;28;20418;-88
2021/10/27 17:24:31;;;;;;;6.22;1.42;;;15.60;77.80;;;;;;5087070;28;20044;-85
2021/10/27 17:27:20;;;;;;;5.22;1.52;;;15.60;77.90;;;;;;5095848;28;20067;-86
2021/10/27 17:29:49;;;;;;;3.22;1.10;;;15.60;77.90;;;;;;5096403;28;20046;-86
2021/10/27 17:32:17;;;;;;;6.40;1.25;;;15.60;77.80;;;;;;5090722;28;20048;-86
2021/10/27 17:34:45;;;;;;;3.22;1.02;;;15.60;77.70;;;;;;5089626;28;20501;-88
2021/10/27 17:37:14;;;;;;;3.83;1.17;;;15.60;77.70;;;;;;5078599;28;20051;-86
2021/10/27 17:39:43;;;;;;;5.30;1.80;;;15.60;77.70;;;;;;5085727;28;20390;-87
2021/10/27 17:42:16;;;;;;;4.28;1.38;;;15.60;77.70;;;;;;5091506;28;20047;-85
2021/10/27 17:44:47;;;;;;;2.78;1.00;;;15.50;77.70;;;;;;5077501;28;20402;-83
2021/10/27 17:47:25;;;;;;;5.60;1.65;;;15.50;77.90;;;;;;5091398;28;20040;-86
2021/10/27 17:50:35;;;;;;;4.35;1.05;;;15.50;77.90;;;;;;5090830;28;20578;-88
2021/10/27 17:58:30;;;;;;;5.18;1.05;;;15.50;78.10;;;;;;5089555;28;20044;-85
2021/10/27 18:01:00;;;;;;;7.68;1.23;;;15.50;78.20;;;;;;5092189;28;20477;-84
2021/10/27 18:03:30;;;;;;;6.70;1.67;;;15.40;78.30;;;;;;5091802;28;20111;-84
2021/10/27 18:06:05;;;;;;;7.75;1.70;;;15.40;78.40;;;;;;5073725;28;20045;-85
2021/10/27 18:08:36;;;;;;;5.32;1.40;;;15.40;78.40;;;;;;5075073;28;20049;-85